createdAt,value
2017-08-21T00:00:03.430Z,76.10
2017-08-21T00:02:29.658Z,76.50
2017-08-21T00:04:55.877Z,76.60
2017-08-21T00:07:22.112Z,76.70
2017-08-21T00:09:48.360Z,77.00
2017-08-21T00:12:14.583Z,77.00
2017-08-21T00:14:40.801Z,77.10
2017-08-21T00:17:07.118Z,77.20
2017-08-21T00:19:33.361Z,77.20
2017-08-21T00:21:59.611Z,76.80
2017-08-21T00:24:25.970Z,77.00
2017-08-21T00:26:52.190Z,76.80
2017-08-21T00:29:18.405Z,76.80
2017-08-21T00:31:44.650Z,76.60
2017-08-21T00:34:10.909Z,76.60
2017-08-21T00:36:37.141Z,76.80
2017-08-21T00:39:17.633Z,76.90
2017-08-21T00:41:44.870Z,77.20
2017-08-21T00:44:11.109Z,77.10
2017-08-21T00:46:38.105Z,77.40
2017-08-21T00:49:04.323Z,77.30
2017-08-21T00:51:30.561Z,77.10
2017-08-21T00:53:56.798Z,77.10
2017-08-21T00:56:23.021Z,77.20
2017-08-21T00:58:49.242Z,77.10
2017-08-21T01:01:16.284Z,77.00
2017-08-21T01:03:42.526Z,77.10
2017-08-21T01:06:08.743Z,77.40
2017-08-21T01:08:35.710Z,76.80
2017-08-21T01:11:01.931Z,76.70
2017-08-21T01:13:28.174Z,77.00
2017-08-21T01:15:55.154Z,76.60
2017-08-21T01:18:21.391Z,76.60
2017-08-21T01:20:47.630Z,76.60
2017-08-21T01:23:14.666Z,76.60
2017-08-21T01:25:40.895Z,76.50
2017-08-21T01:28:07.979Z,76.50
2017-08-21T01:30:34.217Z,76.60
2017-08-21T01:33:00.448Z,76.90
2017-08-21T01:35:26.671Z,76.80
2017-08-21T01:37:52.915Z,76.40
2017-08-21T01:40:19.155Z,76.20
2017-08-21T01:42:58.798Z,76.50
2017-08-21T01:45:26.306Z,76.50
2017-08-21T01:47:52.553Z,76.60
2017-08-21T01:50:18.921Z,76.80
2017-08-21T01:52:45.141Z,76.90
2017-08-21T01:55:11.356Z,76.90
2017-08-21T01:57:37.615Z,76.90
2017-08-21T02:00:03.846Z,77.40
2017-08-21T02:02:30.081Z,76.50
2017-08-21T02:04:56.374Z,76.60
2017-08-21T02:07:22.603Z,76.70
2017-08-21T02:09:48.837Z,76.70
2017-08-21T02:12:15.097Z,76.60
2017-08-21T02:14:41.333Z,76.80
2017-08-21T02:17:07.567Z,76.80
2017-08-21T02:19:36.434Z,77.60
2017-08-21T02:22:02.675Z,77.20
2017-08-21T02:24:28.901Z,76.90
2017-08-21T02:26:55.990Z,77.20
2017-08-21T02:29:22.218Z,76.80
2017-08-21T02:31:48.446Z,76.60
2017-08-21T02:34:14.778Z,76.60
2017-08-21T02:36:41.030Z,76.70
2017-08-21T02:39:07.281Z,76.60
2017-08-21T02:41:33.549Z,76.60
2017-08-21T02:44:00.518Z,76.50
2017-08-21T02:46:26.870Z,76.50
2017-08-21T02:48:58.010Z,76.40
2017-08-21T02:51:24.238Z,76.30
2017-08-21T02:53:50.465Z,76.00
2017-08-21T02:56:16.734Z,76.20
2017-08-21T02:58:42.966Z,76.10
2017-08-21T03:01:09.279Z,76.10
2017-08-21T03:03:35.534Z,76.20
2017-08-21T03:06:01.770Z,76.50
2017-08-21T03:08:27.998Z,76.50
2017-08-21T03:10:56.163Z,76.20
2017-08-21T03:13:22.402Z,76.30
2017-08-21T03:15:48.629Z,76.20
2017-08-21T03:18:14.891Z,76.90
2017-08-21T03:20:41.122Z,76.90
2017-08-21T03:23:07.366Z,77.30
2017-08-21T03:25:33.629Z,77.30
2017-08-21T03:28:00.762Z,77.50
2017-08-21T03:30:26.999Z,77.40
2017-08-21T03:32:55.157Z,77.60
2017-08-21T03:35:21.425Z,77.70
2017-08-21T03:37:47.678Z,77.80
2017-08-21T03:40:14.773Z,77.80
2017-08-21T03:42:40.998Z,77.30
2017-08-21T03:45:07.233Z,77.40
2017-08-21T03:47:36.234Z,77.60
2017-08-21T03:50:02.465Z,77.40
2017-08-21T03:52:28.794Z,77.30
2017-08-21T03:54:55.842Z,77.40
2017-08-21T03:57:22.077Z,77.40
2017-08-21T03:59:48.303Z,77.30
2017-08-21T04:02:15.282Z,77.00
2017-08-21T04:04:41.524Z,77.00
2017-08-21T04:07:07.746Z,76.90
2017-08-21T04:09:34.034Z,77.00
2017-08-21T04:12:00.274Z,77.10
2017-08-21T04:14:26.498Z,77.40
2017-08-21T04:16:53.148Z,77.30
2017-08-21T04:19:19.387Z,77.30
2017-08-21T04:21:45.616Z,77.40
2017-08-21T04:24:11.858Z,77.50
2017-08-21T04:26:38.082Z,77.30
2017-08-21T04:29:04.302Z,77.50
2017-08-21T04:31:30.551Z,77.40
2017-08-21T04:33:57.125Z,77.50
2017-08-21T04:36:23.358Z,77.30
2017-08-21T04:38:50.472Z,77.60
2017-08-21T04:41:16.718Z,77.20
2017-08-21T04:43:42.981Z,77.10
2017-08-21T04:46:09.287Z,77.10
2017-08-21T04:48:35.958Z,77.60
2017-08-21T04:51:02.940Z,77.40
2017-08-21T04:53:29.210Z,77.40
2017-08-21T04:55:55.430Z,77.50
2017-08-21T04:58:21.665Z,77.90
2017-08-21T05:00:48.694Z,78.10
2017-08-21T05:03:14.919Z,78.00
2017-08-21T05:05:41.154Z,78.10
2017-08-21T05:08:07.406Z,78.10
2017-08-21T05:10:33.662Z,77.90
2017-08-21T05:12:59.915Z,77.70
2017-08-21T05:15:26.310Z,77.70
2017-08-21T05:17:52.538Z,77.80
2017-08-21T05:20:18.775Z,77.90
2017-08-21T05:22:45.675Z,77.70
2017-08-21T05:25:12.641Z,77.90
2017-08-21T05:27:38.870Z,77.90
2017-08-21T05:30:05.126Z,78.10
2017-08-21T05:32:31.345Z,78.10
2017-08-21T05:34:57.580Z,77.90
2017-08-21T05:37:23.826Z,78.00
2017-08-21T05:39:50.055Z,78.20
2017-08-21T05:42:16.279Z,78.50
2017-08-21T05:44:42.577Z,78.70
2017-08-21T05:47:08.808Z,78.80
2017-08-21T05:49:35.867Z,78.80
2017-08-21T05:52:02.253Z,78.70
2017-08-21T05:54:28.497Z,78.50
2017-08-21T05:56:55.474Z,78.10
2017-08-21T05:59:21.718Z,78.10
2017-08-21T06:01:54.896Z,78.30
2017-08-21T06:04:21.129Z,78.40
2017-08-21T06:06:47.366Z,78.70
2017-08-21T06:09:13.602Z,78.20
2017-08-21T06:11:39.862Z,78.30
2017-08-21T06:14:06.086Z,78.00
2017-08-21T06:16:32.318Z,79.20
2017-08-21T06:19:05.580Z,78.70
2017-08-21T06:21:31.826Z,78.80
2017-08-21T06:23:58.078Z,79.00
2017-08-21T06:26:25.040Z,78.80
2017-08-21T06:28:51.271Z,78.70
2017-08-21T06:31:17.530Z,79.00
2017-08-21T06:33:43.782Z,79.00
2017-08-21T06:36:10.018Z,78.90
2017-08-21T06:38:36.251Z,79.10
2017-08-21T06:41:02.554Z,79.20
2017-08-21T06:43:29.541Z,79.20
2017-08-21T06:45:55.766Z,79.10
2017-08-21T06:48:22.113Z,79.10
2017-08-21T06:50:49.162Z,78.90
2017-08-21T06:53:15.382Z,79.10
2017-08-21T06:55:41.642Z,78.90
2017-08-21T06:58:07.872Z,78.90
2017-08-21T07:00:34.103Z,79.50
2017-08-21T07:03:00.438Z,79.40
2017-08-21T07:05:26.687Z,79.30
2017-08-21T07:07:52.950Z,78.80
2017-08-21T07:10:20.421Z,78.30
2017-08-21T07:12:46.683Z,78.10
2017-08-21T07:15:12.914Z,78.10
2017-08-21T07:17:39.161Z,78.10
2017-08-21T07:20:05.387Z,78.20
2017-08-21T07:22:31.676Z,78.20
2017-08-21T07:24:57.922Z,78.90
2017-08-21T07:27:24.150Z,78.60
2017-08-21T07:29:50.379Z,78.10
2017-08-21T07:32:17.276Z,78.20
2017-08-21T07:34:43.526Z,78.20
2017-08-21T07:37:09.753Z,78.10
2017-08-21T07:39:36.007Z,77.80
2017-08-21T07:42:02.245Z,77.50
2017-08-21T07:44:28.482Z,77.00
2017-08-21T07:46:54.866Z,76.70
2017-08-21T07:49:21.101Z,76.90
2017-08-21T07:51:58.458Z,76.80
2017-08-21T07:54:24.694Z,77.40
2017-08-21T07:56:50.935Z,77.20
2017-08-21T07:59:17.221Z,76.70
2017-08-21T08:01:43.474Z,77.20
2017-08-21T08:04:09.714Z,76.60
2017-08-21T08:06:36.004Z,76.10
2017-08-21T08:09:02.983Z,75.50
2017-08-21T08:11:29.227Z,75.50
2017-08-21T08:13:56.247Z,76.10
2017-08-21T08:16:22.475Z,75.90
2017-08-21T08:18:48.705Z,76.00
2017-08-21T08:21:15.798Z,75.70
2017-08-21T08:23:42.039Z,75.60
2017-08-21T08:26:08.280Z,75.80
2017-08-21T08:28:34.550Z,75.90
2017-08-21T08:31:00.797Z,75.50
2017-08-21T08:33:27.038Z,76.20
2017-08-21T08:35:53.370Z,76.70
2017-08-21T08:38:19.614Z,77.20
2017-08-21T08:40:45.834Z,76.70
2017-08-21T08:43:12.100Z,76.60
2017-08-21T08:45:39.301Z,76.80
2017-08-21T08:48:05.525Z,76.90
2017-08-21T08:50:31.766Z,77.70
2017-08-21T08:52:58.382Z,78.20
2017-08-21T08:55:24.637Z,78.20
2017-08-21T08:57:51.796Z,78.90
2017-08-21T09:00:18.030Z,79.20
2017-08-21T09:02:44.279Z,79.60
2017-08-21T09:05:10.523Z,79.30
2017-08-21T09:07:36.792Z,79.90
2017-08-21T09:10:03.010Z,79.80
2017-08-21T09:12:29.267Z,79.90
2017-08-21T09:14:55.510Z,80.30
2017-08-21T09:17:21.738Z,81.00
2017-08-21T09:19:48.813Z,81.80
2017-08-21T09:22:15.023Z,82.00
2017-08-21T09:24:41.242Z,83.00
2017-08-21T09:27:07.631Z,82.30
2017-08-21T09:29:33.866Z,81.80
2017-08-21T09:32:00.099Z,81.80
2017-08-21T09:34:26.346Z,81.50
2017-08-21T09:36:52.580Z,81.40
2017-08-21T09:39:18.853Z,80.80
2017-08-21T09:41:45.230Z,80.80
2017-08-21T09:44:11.479Z,80.90
2017-08-21T09:46:37.713Z,80.60
2017-08-21T09:49:03.961Z,80.90
2017-08-21T09:51:30.202Z,81.80
2017-08-21T09:53:57.236Z,82.30
2017-08-21T09:56:23.490Z,82.80
2017-08-21T09:59:17.618Z,81.90
2017-08-21T10:01:43.926Z,81.60
2017-08-21T10:04:10.178Z,81.30
2017-08-21T10:06:37.166Z,82.20
2017-08-21T10:09:03.569Z,82.20
2017-08-21T10:11:29.854Z,82.30
2017-08-21T10:13:56.111Z,82.80
2017-08-21T10:16:22.407Z,83.50
2017-08-21T10:18:48.683Z,82.90
2017-08-21T10:21:15.010Z,82.50
2017-08-21T10:23:41.372Z,83.50
2017-08-21T10:26:07.602Z,83.30
2017-08-21T10:28:33.843Z,83.30
2017-08-21T10:31:00.150Z,84.30
2017-08-21T10:33:26.407Z,84.30
2017-08-21T10:35:52.638Z,83.70
2017-08-21T10:38:18.998Z,83.40
2017-08-21T10:40:45.246Z,82.80
2017-08-21T10:43:11.490Z,82.60
2017-08-21T10:45:44.912Z,82.60
2017-08-21T10:48:11.166Z,82.40
2017-08-21T10:50:37.454Z,82.70
2017-08-21T10:53:03.862Z,82.70
2017-08-21T10:55:30.910Z,82.80
2017-08-21T10:57:57.150Z,82.60
2017-08-21T11:00:23.426Z,82.40
2017-08-21T11:02:49.676Z,80.80
2017-08-21T11:05:15.954Z,77.80
2017-08-21T11:07:43.021Z,77.00
2017-08-21T11:10:09.298Z,76.30
2017-08-21T11:12:35.561Z,76.50
2017-08-21T11:15:01.835Z,76.50
2017-08-21T11:17:28.062Z,77.30
2017-08-21T11:19:54.318Z,76.80
2017-08-21T11:22:20.582Z,76.10
2017-08-21T11:24:46.874Z,76.80
2017-08-21T11:27:13.116Z,77.30
2017-08-21T11:29:40.179Z,77.20
2017-08-21T11:32:06.443Z,77.70
2017-08-21T11:34:32.703Z,77.50
2017-08-21T11:36:59.063Z,77.00
2017-08-21T11:39:25.371Z,75.90
2017-08-21T11:41:51.627Z,75.80
2017-08-21T11:44:17.901Z,75.60
2017-08-21T11:46:44.182Z,74.30
2017-08-21T11:49:10.455Z,73.80
2017-08-21T11:51:37.387Z,73.30
2017-08-21T11:54:03.627Z,72.80
2017-08-21T11:56:30.431Z,73.20
2017-08-21T11:58:56.694Z,73.10
2017-08-21T12:01:22.943Z,73.20
2017-08-21T12:03:49.205Z,71.90
2017-08-21T12:06:15.463Z,71.00
2017-08-21T12:08:41.711Z,71.10
2017-08-21T12:11:07.993Z,71.30
2017-08-21T12:13:34.866Z,69.80
2017-08-21T12:16:01.139Z,69.70
2017-08-21T12:18:27.418Z,67.80
2017-08-21T12:21:00.574Z,68.40
2017-08-21T12:23:26.871Z,69.00
2017-08-21T12:25:53.142Z,69.60
2017-08-21T12:28:19.552Z,69.90
2017-08-21T12:30:45.830Z,68.40
2017-08-21T12:33:12.091Z,68.60
2017-08-21T12:35:38.394Z,67.70
2017-08-21T12:38:04.654Z,66.80
2017-08-21T12:40:30.906Z,66.70
2017-08-21T12:42:57.190Z,67.50
2017-08-21T12:45:23.479Z,67.40
2017-08-21T12:47:49.732Z,66.70
2017-08-21T12:50:15.990Z,67.00
2017-08-21T12:52:42.247Z,67.40
2017-08-21T12:55:08.520Z,65.90
2017-08-21T12:57:43.435Z,65.80
2017-08-21T13:00:09.726Z,66.40
2017-08-21T13:02:35.970Z,66.10
2017-08-21T13:05:02.375Z,66.40
2017-08-21T13:07:28.635Z,67.10
2017-08-21T13:09:54.922Z,66.40
2017-08-21T13:12:21.183Z,67.20
2017-08-21T13:14:47.434Z,66.00
2017-08-21T13:17:13.715Z,66.30
2017-08-21T13:19:40.471Z,66.80
2017-08-21T13:22:06.847Z,66.00
2017-08-21T13:24:33.109Z,66.70
2017-08-21T13:26:59.383Z,66.20
2017-08-21T13:29:25.678Z,65.00
2017-08-21T13:31:51.994Z,64.60
2017-08-21T13:34:18.267Z,64.70
2017-08-21T13:36:44.555Z,65.00
2017-08-21T13:39:10.806Z,63.60
2017-08-21T13:41:37.416Z,62.50
2017-08-21T13:44:03.675Z,61.60
2017-08-21T13:46:29.904Z,61.70
2017-08-21T13:48:56.183Z,61.30
2017-08-21T13:51:22.470Z,60.30
2017-08-21T13:53:48.822Z,59.80
2017-08-21T13:56:15.118Z,60.50
2017-08-21T13:58:53.025Z,60.20
2017-08-21T14:01:20.059Z,59.20
2017-08-21T14:03:46.304Z,60.00
2017-08-21T14:06:12.539Z,60.00
2017-08-21T14:08:38.819Z,59.40
2017-08-21T14:11:05.058Z,59.80
2017-08-21T14:13:31.303Z,59.80
2017-08-21T14:15:57.569Z,59.60
2017-08-21T14:18:23.815Z,60.60
2017-08-21T14:20:50.069Z,60.70
2017-08-21T14:25:49.671Z,61.30
2017-08-21T14:28:16.018Z,61.80
2017-08-21T14:30:42.260Z,62.00
2017-08-21T14:33:08.771Z,61.90
2017-08-21T14:35:35.006Z,62.00
2017-08-21T14:38:01.259Z,62.10
2017-08-21T14:40:27.583Z,61.70
2017-08-21T14:42:53.844Z,61.60
2017-08-21T14:45:20.187Z,61.90
2017-08-21T14:47:46.503Z,61.00
2017-08-21T14:50:12.781Z,60.80
2017-08-21T14:52:39.031Z,60.40
2017-08-21T14:55:05.294Z,61.00
2017-08-21T14:57:31.547Z,61.80
2017-08-21T14:59:58.290Z,62.30
2017-08-21T15:02:24.765Z,63.00
2017-08-21T15:04:51.043Z,63.40
2017-08-21T15:07:18.045Z,64.00
2017-08-21T15:09:45.165Z,63.90
2017-08-21T15:12:11.420Z,64.70
2017-08-21T15:14:37.783Z,63.90
2017-08-21T15:17:04.091Z,64.00
2017-08-21T15:19:30.330Z,64.00
2017-08-21T15:21:56.578Z,64.30
2017-08-21T15:24:22.862Z,64.20
2017-08-21T15:26:49.133Z,64.60
2017-08-21T15:29:15.386Z,65.20
2017-08-21T15:31:41.783Z,64.90
2017-08-21T15:34:08.043Z,64.10
2017-08-21T15:36:34.304Z,64.20
2017-08-21T15:39:00.692Z,63.80
2017-08-21T15:41:26.994Z,63.30
2017-08-21T15:43:53.367Z,63.50
2017-08-21T15:46:19.646Z,63.80
2017-08-21T15:48:45.902Z,64.10
2017-08-21T15:51:12.139Z,63.70
2017-08-21T15:53:38.764Z,64.60
2017-08-21T15:56:05.025Z,63.90
2017-08-21T15:58:31.274Z,64.00
2017-08-21T16:00:58.374Z,64.20
2017-08-21T16:03:25.613Z,63.70
2017-08-21T16:05:51.859Z,63.70
2017-08-21T16:08:18.144Z,64.00
2017-08-21T16:10:44.394Z,63.60
2017-08-21T16:13:10.651Z,64.00
2017-08-21T16:15:37.388Z,64.50
2017-08-21T16:18:03.631Z,64.20
2017-08-21T16:20:29.885Z,64.10
2017-08-21T16:22:56.148Z,64.10
2017-08-21T16:25:22.447Z,63.60
2017-08-21T16:27:48.744Z,63.60
2017-08-21T16:30:15.023Z,63.10
2017-08-21T16:32:41.299Z,63.80
2017-08-21T16:35:07.619Z,63.70
2017-08-21T16:37:34.419Z,63.50
2017-08-21T16:40:00.694Z,64.30
2017-08-21T16:42:26.959Z,65.10
2017-08-21T16:44:53.354Z,65.00
2017-08-21T16:47:19.652Z,65.10
2017-08-21T16:49:45.906Z,64.40
2017-08-21T16:52:12.227Z,64.80
2017-08-21T16:54:39.226Z,65.00
2017-08-21T16:57:05.551Z,65.00
2017-08-21T16:59:32.186Z,64.10
2017-08-21T17:01:58.909Z,60.40
2017-08-21T17:04:25.178Z,59.70
2017-08-21T17:06:51.465Z,59.80
2017-08-21T17:09:17.768Z,59.80
2017-08-21T17:11:44.071Z,58.90
2017-08-21T17:14:10.385Z,58.90
2017-08-21T17:16:36.671Z,58.60
2017-08-21T17:19:03.010Z,59.00
2017-08-21T17:21:35.369Z,59.50
2017-08-21T17:24:03.376Z,58.90
2017-08-21T17:26:29.822Z,59.10
2017-08-21T17:28:56.219Z,59.50
2017-08-21T17:31:22.484Z,59.80
2017-08-21T17:33:48.823Z,59.30
2017-08-21T17:36:15.171Z,59.30
2017-08-21T17:38:41.447Z,59.60
2017-08-21T17:41:08.160Z,59.80
2017-08-21T17:43:34.527Z,59.30
2017-08-21T17:46:02.111Z,59.20
2017-08-21T17:48:28.454Z,59.20
2017-08-21T17:50:54.808Z,59.60
2017-08-21T17:53:22.197Z,59.70
2017-08-21T17:55:49.566Z,59.60
2017-08-21T17:58:15.951Z,59.90
2017-08-21T18:00:42.255Z,59.90
2017-08-21T18:03:19.762Z,59.90
2017-08-21T18:05:46.050Z,60.50
2017-08-21T18:08:12.433Z,60.10
2017-08-21T18:10:38.890Z,60.20
2017-08-21T18:13:05.157Z,60.10
2017-08-21T18:15:31.471Z,61.00
2017-08-21T18:17:58.251Z,59.90
2017-08-21T18:20:24.619Z,59.90
2017-08-21T18:22:51.014Z,60.10
2017-08-21T18:25:17.383Z,60.80
2017-08-21T18:27:43.770Z,61.20
2017-08-21T18:30:10.098Z,61.30
2017-08-21T18:32:36.464Z,61.40
2017-08-21T18:35:03.637Z,62.10
2017-08-21T18:37:30.155Z,61.90
2017-08-21T18:39:56.995Z,62.20
2017-08-21T18:42:23.318Z,62.50
2017-08-21T18:44:49.723Z,62.50
2017-08-21T18:47:16.334Z,63.10
2017-08-21T18:49:43.724Z,63.10
2017-08-21T18:52:10.158Z,63.00
2017-08-21T18:54:36.518Z,62.80
2017-08-21T18:57:02.826Z,62.80
2017-08-21T18:59:32.769Z,62.90
2017-08-21T19:01:59.282Z,62.90
2017-08-21T19:04:26.399Z,63.40
2017-08-21T19:06:53.820Z,63.30
2017-08-21T19:09:20.398Z,63.50
2017-08-21T19:11:46.839Z,63.60
2017-08-21T19:14:13.179Z,63.70
2017-08-21T19:16:39.669Z,63.40
2017-08-21T19:19:06.184Z,63.90
2017-08-21T19:21:32.550Z,63.50
2017-08-21T19:23:59.782Z,63.60
2017-08-21T19:26:26.118Z,63.60
2017-08-21T19:28:52.362Z,63.80
2017-08-21T19:31:18.670Z,63.90
2017-08-21T19:33:45.030Z,64.50
2017-08-21T19:36:11.303Z,63.40
2017-08-21T19:38:37.651Z,63.60
2017-08-21T19:41:04.000Z,64.10
2017-08-21T19:43:30.333Z,64.00
2017-08-21T19:45:57.027Z,64.20
2017-08-21T19:48:23.364Z,64.40
2017-08-21T19:50:49.666Z,64.20
2017-08-21T19:53:16.878Z,64.10
2017-08-21T19:55:43.305Z,64.30
2017-08-21T19:58:09.595Z,64.10
2017-08-21T20:00:36.029Z,64.20
2017-08-21T20:03:02.346Z,64.60
2017-08-21T20:05:29.547Z,64.50
2017-08-21T20:07:56.043Z,64.70
2017-08-21T20:10:22.390Z,64.90
2017-08-21T20:12:48.704Z,64.90
2017-08-21T20:15:15.075Z,65.60
2017-08-21T20:17:41.385Z,65.90
2017-08-21T20:20:07.913Z,65.40
2017-08-21T20:22:34.422Z,65.50
2017-08-21T20:25:00.674Z,65.30
2017-08-21T20:27:26.962Z,65.50
2017-08-21T20:29:53.341Z,65.70
2017-08-21T20:32:19.594Z,66.20
2017-08-21T20:34:52.763Z,66.10
2017-08-21T20:37:19.058Z,66.70
2017-08-21T20:39:45.388Z,67.10
2017-08-21T20:42:11.751Z,66.70
2017-08-21T20:44:38.176Z,66.60
2017-08-21T20:47:04.451Z,66.60
2017-08-21T20:49:31.043Z,66.20
2017-08-21T20:51:57.426Z,66.20
2017-08-21T20:54:23.722Z,66.40
2017-08-21T20:56:50.148Z,66.30
2017-08-21T20:59:16.411Z,66.10
2017-08-21T21:01:42.704Z,66.10
2017-08-21T21:04:09.072Z,66.20
2017-08-21T21:06:36.325Z,66.30
2017-08-21T21:09:02.786Z,66.20
2017-08-21T21:11:29.122Z,66.30
2017-08-21T21:13:55.464Z,66.50
2017-08-21T21:16:21.792Z,66.50
2017-08-21T21:18:48.098Z,66.90
2017-08-21T21:21:14.378Z,67.30
2017-08-21T21:23:40.680Z,66.90
2017-08-21T21:26:06.969Z,67.00
2017-08-21T21:28:33.263Z,67.30
2017-08-21T21:30:59.563Z,67.50
2017-08-21T21:33:26.421Z,67.20
2017-08-21T21:35:52.782Z,67.40
2017-08-21T21:38:19.056Z,67.60
2017-08-21T21:40:45.331Z,67.80
2017-08-21T21:43:11.602Z,67.80
2017-08-21T21:45:37.866Z,67.90
2017-08-21T21:48:04.252Z,67.80
2017-08-21T21:50:30.599Z,68.00
2017-08-21T21:52:56.964Z,68.20
2017-08-21T21:55:24.161Z,67.90
2017-08-21T21:57:50.410Z,67.70
2017-08-21T22:00:16.755Z,67.80
2017-08-21T22:02:43.071Z,67.90
2017-08-21T22:05:09.330Z,67.90
2017-08-21T22:07:36.975Z,67.90
2017-08-21T22:10:03.395Z,68.00
2017-08-21T22:12:29.691Z,68.30
2017-08-21T22:14:55.971Z,68.60
2017-08-21T22:17:22.368Z,68.50
2017-08-21T22:19:48.624Z,68.60
2017-08-21T22:22:14.944Z,68.60
2017-08-21T22:24:41.259Z,68.60
2017-08-21T22:27:07.520Z,68.80
2017-08-21T22:29:33.832Z,68.60
2017-08-21T22:32:00.143Z,68.50
2017-08-21T22:34:26.440Z,68.70
2017-08-21T22:36:52.699Z,68.50
2017-08-21T22:39:19.782Z,68.60
2017-08-21T22:41:46.051Z,68.60
2017-08-21T22:44:12.366Z,68.80
2017-08-21T22:46:38.748Z,68.40
2017-08-21T22:49:05.093Z,68.50
2017-08-21T22:51:31.358Z,68.50
2017-08-21T22:53:57.652Z,68.70
2017-08-21T22:56:23.946Z,68.50
2017-08-21T22:58:50.238Z,68.60
2017-08-21T23:01:16.874Z,68.70
2017-08-21T23:03:43.159Z,68.80
2017-08-21T23:06:09.446Z,68.80
2017-08-21T23:08:36.395Z,68.80
2017-08-21T23:11:02.722Z,69.40
2017-08-21T23:13:28.999Z,69.00
2017-08-21T23:15:55.283Z,69.10
2017-08-21T23:18:21.610Z,69.10
2017-08-21T23:20:47.887Z,69.40
2017-08-21T23:23:15.066Z,69.20
2017-08-21T23:25:41.314Z,69.70
2017-08-21T23:28:07.602Z,69.50
2017-08-21T23:30:33.897Z,69.50
2017-08-21T23:33:00.166Z,70.70
2017-08-21T23:35:27.266Z,69.70
2017-08-21T23:37:53.575Z,69.80
2017-08-21T23:40:19.930Z,69.90
2017-08-21T23:42:46.211Z,70.00
2017-08-21T23:45:13.322Z,70.40
2017-08-21T23:47:39.562Z,70.00
2017-08-21T23:50:05.814Z,70.00
2017-08-21T23:52:32.143Z,69.80
2017-08-21T23:54:58.395Z,69.80
2017-08-21T23:57:24.662Z,69.30
2017-08-21T23:59:50.978Z,69.30
